sensor_id;sensor_type;location;lat;lon;timestamp;temperature;humidity
36446;DHT22;22472;50.848;-1.216;2022-07-11T00:02:15;17.90;99.90
36446;DHT22;22472;50.848;-1.216;2022-07-11T00:04:42;17.90;99.90
36446;DHT22;22472;50.848;-1.216;2022-07-11T00:07:10;17.90;99.90
36446;DHT22;22472;50.848;-1.216;2022-07-11T00:09:39;17.90;99.90
36446;DHT22;22472;50.848;-1.216;2022-07-11T00:12:07;17.80;99.90
36446;DHT22;22472;50.848;-1.216;2022-07-11T00:14:35;17.90;99.90
36446;DHT22;22472;50.848;-1.216;2022-07-11T00:17:05;17.80;99.90
36446;DHT22;22472;50.848;-1.216;2022-07-11T00:19:33;17.80;99.90
36446;DHT22;22472;50.848;-1.216;2022-07-11T00:22:00;17.80;99.90
36446;DHT22;22472;50.848;-1.216;2022-07-11T00:24:27;17.80;99.90
36446;DHT22;22472;50.848;-1.216;2022-07-11T00:26:56;17.80;99.90
36446;DHT22;22472;50.848;-1.216;2022-07-11T00:29:23;17.80;99.90
36446;DHT22;22472;50.848;-1.216;2022-07-11T00:31:50;17.80;99.90
36446;DHT22;22472;50.848;-1.216;2022-07-11T00:34:17;17.80;99.90
36446;DHT22;22472;50.848;-1.216;2022-07-11T00:36:44;17.80;99.90
36446;DHT22;22472;50.848;-1.216;2022-07-11T00:39:11;17.80;99.90
36446;DHT22;22472;50.848;-1.216;2022-07-11T00:41:38;17.70;99.90
36446;DHT22;22472;50.848;-1.216;2022-07-11T00:44:06;17.70;99.90
36446;DHT22;22472;50.848;-1.216;2022-07-11T00:46:33;17.70;99.90
36446;DHT22;22472;50.848;-1.216;2022-07-11T00:49:00;17.60;99.90
36446;DHT22;22472;50.848;-1.216;2022-07-11T00:51:28;17.60;99.90
36446;DHT22;22472;50.848;-1.216;2022-07-11T00:53:56;17.60;99.90
36446;DHT22;22472;50.848;-1.216;2022-07-11T00:56:26;17.60;99.90
36446;DHT22;22472;50.848;-1.216;2022-07-11T00:58:53;17.50;99.90
36446;DHT22;22472;50.848;-1.216;2022-07-11T01:01:22;17.50;99.90
36446;DHT22;22472;50.848;-1.216;2022-07-11T01:03:50;17.50;99.90
36446;DHT22;22472;50.848;-1.216;2022-07-11T01:06:17;17.40;99.90
36446;DHT22;22472;50.848;-1.216;2022-07-11T01:08:44;17.30;99.90
36446;DHT22;22472;50.848;-1.216;2022-07-11T01:11:12;17.20;99.90
36446;DHT22;22472;50.848;-1.216;2022-07-11T01:13:41;17.10;99.90
36446;DHT22;22472;50.848;-1.216;2022-07-11T01:16:10;17.10;99.90
36446;DHT22;22472;50.848;-1.216;2022-07-11T01:18:41;17.00;99.90
36446;DHT22;22472;50.848;-1.216;2022-07-11T01:21:18;17.00;99.90
36446;DHT22;22472;50.848;-1.216;2022-07-11T01:23:49;16.90;99.90
36446;DHT22;22472;50.848;-1.216;2022-07-11T01:26:18;16.90;99.90
36446;DHT22;22472;50.848;-1.216;2022-07-11T01:28:45;16.90;99.90
36446;DHT22;22472;50.848;-1.216;2022-07-11T01:31:13;16.80;99.90
36446;DHT22;22472;50.848;-1.216;2022-07-11T01:33:40;16.80;99.90
36446;DHT22;22472;50.848;-1.216;2022-07-11T01:36:08;16.80;99.90
36446;DHT22;22472;50.848;-1.216;2022-07-11T01:38:35;16.80;99.90
36446;DHT22;22472;50.848;-1.216;2022-07-11T01:41:04;16.80;99.90
36446;DHT22;22472;50.848;-1.216;2022-07-11T01:43:32;16.80;99.90
36446;DHT22;22472;50.848;-1.216;2022-07-11T01:45:59;16.80;99.90
36446;DHT22;22472;50.848;-1.216;2022-07-11T01:48:26;16.80;99.90
36446;DHT22;22472;50.848;-1.216;2022-07-11T01:50:53;16.80;99.90
36446;DHT22;22472;50.848;-1.216;2022-07-11T01:53:20;16.80;99.90
36446;DHT22;22472;50.848;-1.216;2022-07-11T01:55:48;16.80;99.90
36446;DHT22;22472;50.848;-1.216;2022-07-11T01:58:16;16.80;99.90
36446;DHT22;22472;50.848;-1.216;2022-07-11T02:00:43;16.80;99.90
36446;DHT22;22472;50.848;-1.216;2022-07-11T02:03:39;16.80;99.90
36446;DHT22;22472;50.848;-1.216;2022-07-11T02:06:09;16.80;99.90
36446;DHT22;22472;50.848;-1.216;2022-07-11T02:08:36;16.80;99.90
36446;DHT22;22472;50.848;-1.216;2022-07-11T02:11:04;16.70;99.90
36446;DHT22;22472;50.848;-1.216;2022-07-11T02:13:32;16.70;99.90
36446;DHT22;22472;50.848;-1.216;2022-07-11T02:16:00;16.70;99.90
36446;DHT22;22472;50.848;-1.216;2022-07-11T02:18:28;16.70;99.90
36446;DHT22;22472;50.848;-1.216;2022-07-11T02:20:55;16.70;99.90
36446;DHT22;22472;50.848;-1.216;2022-07-11T02:23:22;16.70;99.90
36446;DHT22;22472;50.848;-1.216;2022-07-11T02:25:49;16.70;99.90
36446;DHT22;22472;50.848;-1.216;2022-07-11T02:28:17;16.70;99.90
36446;DHT22;22472;50.848;-1.216;2022-07-11T02:30:45;16.70;99.90
36446;DHT22;22472;50.848;-1.216;2022-07-11T02:33:12;16.70;99.90
36446;DHT22;22472;50.848;-1.216;2022-07-11T02:35:41;16.70;99.90
36446;DHT22;22472;50.848;-1.216;2022-07-11T02:38:08;16.70;99.90
36446;DHT22;22472;50.848;-1.216;2022-07-11T02:40:36;16.70;99.90
36446;DHT22;22472;50.848;-1.216;2022-07-11T02:43:03;16.70;99.90
36446;DHT22;22472;50.848;-1.216;2022-07-11T02:45:31;16.70;99.90
36446;DHT22;22472;50.848;-1.216;2022-07-11T02:47:59;16.60;99.90
36446;DHT22;22472;50.848;-1.216;2022-07-11T02:50:27;16.60;99.90
36446;DHT22;22472;50.848;-1.216;2022-07-11T02:52:54;16.60;99.90
36446;DHT22;22472;50.848;-1.216;2022-07-11T02:55:21;16.60;99.90
36446;DHT22;22472;50.848;-1.216;2022-07-11T02:57:48;16.60;99.90
36446;DHT22;22472;50.848;-1.216;2022-07-11T03:00:17;16.50;99.90
36446;DHT22;22472;50.848;-1.216;2022-07-11T03:02:44;16.50;99.90
36446;DHT22;22472;50.848;-1.216;2022-07-11T03:05:13;16.50;99.90
36446;DHT22;22472;50.848;-1.216;2022-07-11T03:07:40;16.50;99.90
36446;DHT22;22472;50.848;-1.216;2022-07-11T03:10:08;16.50;99.90
36446;DHT22;22472;50.848;-1.216;2022-07-11T03:12:36;16.50;99.90
36446;DHT22;22472;50.848;-1.216;2022-07-11T03:15:04;16.50;99.90
36446;DHT22;22472;50.848;-1.216;2022-07-11T03:17:31;16.40;99.90
36446;DHT22;22472;50.848;-1.216;2022-07-11T03:19:58;16.40;99.90
36446;DHT22;22472;50.848;-1.216;2022-07-11T03:22:27;16.40;99.90
36446;DHT22;22472;50.848;-1.216;2022-07-11T03:24:54;16.30;99.90
36446;DHT22;22472;50.848;-1.216;2022-07-11T03:27:22;16.30;99.90
36446;DHT22;22472;50.848;-1.216;2022-07-11T03:29:50;16.30;99.90
36446;DHT22;22472;50.848;-1.216;2022-07-11T03:32:17;16.20;99.90
36446;DHT22;22472;50.848;-1.216;2022-07-11T03:34:46;16.10;99.90
36446;DHT22;22472;50.848;-1.216;2022-07-11T03:37:35;16.10;99.90
36446;DHT22;22472;50.848;-1.216;2022-07-11T03:40:02;16.10;99.90
36446;DHT22;22472;50.848;-1.216;2022-07-11T03:42:30;16.10;99.90
36446;DHT22;22472;50.848;-1.216;2022-07-11T03:44:57;16.10;99.90
36446;DHT22;22472;50.848;-1.216;2022-07-11T03:47:24;16.10;99.90
36446;DHT22;22472;50.848;-1.216;2022-07-11T03:49:51;16.00;99.90
36446;DHT22;22472;50.848;-1.216;2022-07-11T03:52:18;16.10;99.90
36446;DHT22;22472;50.848;-1.216;2022-07-11T03:54:46;16.10;99.90
36446;DHT22;22472;50.848;-1.216;2022-07-11T03:57:13;16.00;99.90
36446;DHT22;22472;50.848;-1.216;2022-07-11T03:59:40;16.00;99.90
36446;DHT22;22472;50.848;-1.216;2022-07-11T04:02:07;16.00;99.90
36446;DHT22;22472;50.848;-1.216;2022-07-11T04:04:34;16.00;99.90
36446;DHT22;22472;50.848;-1.216;2022-07-11T04:07:01;16.00;99.90
36446;DHT22;22472;50.848;-1.216;2022-07-11T04:09:28;15.90;99.90
36446;DHT22;22472;50.848;-1.216;2022-07-11T04:11:58;15.90;99.90
36446;DHT22;22472;50.848;-1.216;2022-07-11T04:14:25;16.00;99.90
36446;DHT22;22472;50.848;-1.216;2022-07-11T04:16:52;15.90;99.90
36446;DHT22;22472;50.848;-1.216;2022-07-11T04:19:19;15.90;99.90
36446;DHT22;22472;50.848;-1.216;2022-07-11T04:21:46;15.90;99.90
36446;DHT22;22472;50.848;-1.216;2022-07-11T04:24:13;15.90;99.90
36446;DHT22;22472;50.848;-1.216;2022-07-11T04:26:40;15.90;99.90
36446;DHT22;22472;50.848;-1.216;2022-07-11T04:29:09;16.00;99.90
36446;DHT22;22472;50.848;-1.216;2022-07-11T04:31:36;16.00;99.90
36446;DHT22;22472;50.848;-1.216;2022-07-11T04:34:03;15.90;99.90
36446;DHT22;22472;50.848;-1.216;2022-07-11T04:36:30;15.90;99.90
36446;DHT22;22472;50.848;-1.216;2022-07-11T04:38:58;15.90;99.90
36446;DHT22;22472;50.848;-1.216;2022-07-11T04:41:25;15.90;99.90
36446;DHT22;22472;50.848;-1.216;2022-07-11T04:43:53;15.90;99.90
36446;DHT22;22472;50.848;-1.216;2022-07-11T04:46:21;16.00;99.90
36446;DHT22;22472;50.848;-1.216;2022-07-11T04:48:48;16.00;99.90
36446;DHT22;22472;50.848;-1.216;2022-07-11T04:51:15;16.00;99.90
36446;DHT22;22472;50.848;-1.216;2022-07-11T04:53:43;16.00;99.90
36446;DHT22;22472;50.848;-1.216;2022-07-11T04:56:10;16.00;99.90
36446;DHT22;22472;50.848;-1.216;2022-07-11T04:58:37;16.00;99.90
36446;DHT22;22472;50.848;-1.216;2022-07-11T05:01:04;16.00;99.90
36446;DHT22;22472;50.848;-1.216;2022-07-11T05:03:33;16.10;99.90
36446;DHT22;22472;50.848;-1.216;2022-07-11T05:06:00;16.20;99.90
36446;DHT22;22472;50.848;-1.216;2022-07-11T05:08:27;16.20;99.90
36446;DHT22;22472;50.848;-1.216;2022-07-11T05:10:54;16.30;99.90
36446;DHT22;22472;50.848;-1.216;2022-07-11T05:13:21;16.40;99.90
36446;DHT22;22472;50.848;-1.216;2022-07-11T05:22:29;16.70;99.90
36446;DHT22;22472;50.848;-1.216;2022-07-11T05:28:18;16.90;99.90
36446;DHT22;22472;50.848;-1.216;2022-07-11T05:30:45;16.90;99.90
36446;DHT22;22472;50.848;-1.216;2022-07-11T05:33:12;17.00;99.90
36446;DHT22;22472;50.848;-1.216;2022-07-11T05:35:40;17.10;99.90
36446;DHT22;22472;50.848;-1.216;2022-07-11T05:38:08;17.20;99.90
36446;DHT22;22472;50.848;-1.216;2022-07-11T05:40:35;17.30;99.90
36446;DHT22;22472;50.848;-1.216;2022-07-11T05:43:03;17.50;99.90
36446;DHT22;22472;50.848;-1.216;2022-07-11T05:45:30;17.50;99.90
36446;DHT22;22472;50.848;-1.216;2022-07-11T05:47:57;17.60;99.90
36446;DHT22;22472;50.848;-1.216;2022-07-11T05:50:24;17.70;99.90
36446;DHT22;22472;50.848;-1.216;2022-07-11T05:52:52;17.80;99.90
36446;DHT22;22472;50.848;-1.216;2022-07-11T05:55:21;17.80;99.90
36446;DHT22;22472;50.848;-1.216;2022-07-11T05:57:48;17.90;99.90
36446;DHT22;22472;50.848;-1.216;2022-07-11T06:00:16;18.00;99.90
36446;DHT22;22472;50.848;-1.216;2022-07-11T06:02:43;18.10;99.90
36446;DHT22;22472;50.848;-1.216;2022-07-11T06:05:10;18.20;99.90
36446;DHT22;22472;50.848;-1.216;2022-07-11T06:07:38;18.30;99.90
36446;DHT22;22472;50.848;-1.216;2022-07-11T06:10:23;18.50;99.90
36446;DHT22;22472;50.848;-1.216;2022-07-11T06:12:50;18.60;99.90
36446;DHT22;22472;50.848;-1.216;2022-07-11T06:15:18;18.70;99.90
36446;DHT22;22472;50.848;-1.216;2022-07-11T06:17:45;18.80;99.90
36446;DHT22;22472;50.848;-1.216;2022-07-11T06:20:12;18.90;99.90
36446;DHT22;22472;50.848;-1.216;2022-07-11T06:22:39;19.00;99.90
36446;DHT22;22472;50.848;-1.216;2022-07-11T06:25:06;19.10;99.90
36446;DHT22;22472;50.848;-1.216;2022-07-11T06:27:36;19.30;99.90
36446;DHT22;22472;50.848;-1.216;2022-07-11T06:30:04;19.40;99.90
36446;DHT22;22472;50.848;-1.216;2022-07-11T06:32:31;19.50;99.90
36446;DHT22;22472;50.848;-1.216;2022-07-11T06:34:58;19.60;99.90
36446;DHT22;22472;50.848;-1.216;2022-07-11T06:37:25;19.70;99.90
36446;DHT22;22472;50.848;-1.216;2022-07-11T06:39:52;19.90;99.90
36446;DHT22;22472;50.848;-1.216;2022-07-11T06:42:19;20.00;99.90
36446;DHT22;22472;50.848;-1.216;2022-07-11T06:44:48;20.10;99.90
36446;DHT22;22472;50.848;-1.216;2022-07-11T06:47:15;20.20;99.90
36446;DHT22;22472;50.848;-1.216;2022-07-11T06:49:42;20.30;99.90
36446;DHT22;22472;50.848;-1.216;2022-07-11T06:52:09;20.40;99.90
36446;DHT22;22472;50.848;-1.216;2022-07-11T06:54:36;20.60;99.90
36446;DHT22;22472;50.848;-1.216;2022-07-11T06:57:03;20.70;99.90
36446;DHT22;22472;50.848;-1.216;2022-07-11T06:59:30;20.80;99.90
36446;DHT22;22472;50.848;-1.216;2022-07-11T07:01:59;21.00;99.90
36446;DHT22;22472;50.848;-1.216;2022-07-11T07:04:26;21.10;99.90
36446;DHT22;22472;50.848;-1.216;2022-07-11T07:06:53;21.30;99.90
36446;DHT22;22472;50.848;-1.216;2022-07-11T07:09:20;21.40;99.90
36446;DHT22;22472;50.848;-1.216;2022-07-11T07:11:47;21.60;99.90
36446;DHT22;22472;50.848;-1.216;2022-07-11T07:14:14;21.70;99.90
36446;DHT22;22472;50.848;-1.216;2022-07-11T07:16:41;21.90;99.90
36446;DHT22;22472;50.848;-1.216;2022-07-11T07:19:09;22.00;99.90
36446;DHT22;22472;50.848;-1.216;2022-07-11T07:21:37;22.20;99.90
36446;DHT22;22472;50.848;-1.216;2022-07-11T07:24:04;22.30;99.90
36446;DHT22;22472;50.848;-1.216;2022-07-11T07:26:31;22.40;99.90
36446;DHT22;22472;50.848;-1.216;2022-07-11T07:28:58;22.60;99.90
36446;DHT22;22472;50.848;-1.216;2022-07-11T07:31:26;22.70;99.90
36446;DHT22;22472;50.848;-1.216;2022-07-11T07:33:53;22.90;99.90
36446;DHT22;22472;50.848;-1.216;2022-07-11T07:36:21;23.10;99.90
36446;DHT22;22472;50.848;-1.216;2022-07-11T07:38:48;23.30;99.90
36446;DHT22;22472;50.848;-1.216;2022-07-11T07:41:16;23.40;99.90
36446;DHT22;22472;50.848;-1.216;2022-07-11T07:43:43;23.60;99.90
36446;DHT22;22472;50.848;-1.216;2022-07-11T07:46:11;23.80;99.90
36446;DHT22;22472;50.848;-1.216;2022-07-11T07:48:38;24.10;99.90
36446;DHT22;22472;50.848;-1.216;2022-07-11T07:51:05;24.30;99.90
36446;DHT22;22472;50.848;-1.216;2022-07-11T07:53:34;24.50;99.90
36446;DHT22;22472;50.848;-1.216;2022-07-11T07:56:01;24.60;99.90
36446;DHT22;22472;50.848;-1.216;2022-07-11T07:58:28;24.80;99.90
36446;DHT22;22472;50.848;-1.216;2022-07-11T08:00:55;25.00;99.90
36446;DHT22;22472;50.848;-1.216;2022-07-11T08:03:40;25.20;99.90
36446;DHT22;22472;50.848;-1.216;2022-07-11T08:06:07;25.30;99.90
36446;DHT22;22472;50.848;-1.216;2022-07-11T08:08:35;25.60;99.90
36446;DHT22;22472;50.848;-1.216;2022-07-11T08:11:02;25.70;99.90
36446;DHT22;22472;50.848;-1.216;2022-07-11T08:13:29;25.90;99.90
36446;DHT22;22472;50.848;-1.216;2022-07-11T08:15:56;26.20;99.90
36446;DHT22;22472;50.848;-1.216;2022-07-11T08:18:23;26.40;99.90
36446;DHT22;22472;50.848;-1.216;2022-07-11T08:20:54;26.50;99.90
36446;DHT22;22472;50.848;-1.216;2022-07-11T08:23:22;26.70;99.90
36446;DHT22;22472;50.848;-1.216;2022-07-11T08:25:50;26.90;99.90
36446;DHT22;22472;50.848;-1.216;2022-07-11T08:28:18;27.10;99.90
36446;DHT22;22472;50.848;-1.216;2022-07-11T08:30:45;27.30;99.90
36446;DHT22;22472;50.848;-1.216;2022-07-11T08:33:12;27.40;99.90
36446;DHT22;22472;50.848;-1.216;2022-07-11T08:35:40;27.60;99.90
36446;DHT22;22472;50.848;-1.216;2022-07-11T08:38:07;27.60;99.90
36446;DHT22;22472;50.848;-1.216;2022-07-11T08:40:34;27.90;99.90
36446;DHT22;22472;50.848;-1.216;2022-07-11T08:43:05;28.00;99.90
36446;DHT22;22472;50.848;-1.216;2022-07-11T08:45:39;28.40;99.90
36446;DHT22;22472;50.848;-1.216;2022-07-11T08:48:07;28.60;99.90
36446;DHT22;22472;50.848;-1.216;2022-07-11T08:50:36;28.90;99.90
36446;DHT22;22472;50.848;-1.216;2022-07-11T08:53:04;29.00;99.90
36446;DHT22;22472;50.848;-1.216;2022-07-11T08:55:31;29.30;99.90
36446;DHT22;22472;50.848;-1.216;2022-07-11T08:57:58;29.50;99.90
36446;DHT22;22472;50.848;-1.216;2022-07-11T09:00:27;29.80;99.90
36446;DHT22;22472;50.848;-1.216;2022-07-11T09:02:57;30.10;99.90
36446;DHT22;22472;50.848;-1.216;2022-07-11T09:05:25;30.20;99.90
36446;DHT22;22472;50.848;-1.216;2022-07-11T09:07:53;30.00;99.90
36446;DHT22;22472;50.848;-1.216;2022-07-11T09:10:20;30.20;99.90
36446;DHT22;22472;50.848;-1.216;2022-07-11T09:13:01;30.60;99.90
36446;DHT22;22472;50.848;-1.216;2022-07-11T09:15:35;31.00;99.90
36446;DHT22;22472;50.848;-1.216;2022-07-11T09:18:05;31.20;99.90
36446;DHT22;22472;50.848;-1.216;2022-07-11T09:20:51;31.20;99.90
36446;DHT22;22472;50.848;-1.216;2022-07-11T09:23:36;31.00;99.90
36446;DHT22;22472;50.848;-1.216;2022-07-11T09:26:21;30.90;99.90
36446;DHT22;22472;50.848;-1.216;2022-07-11T09:29:02;31.30;99.90
36446;DHT22;22472;50.848;-1.216;2022-07-11T09:31:33;31.70;99.90
36446;DHT22;22472;50.848;-1.216;2022-07-11T09:34:05;32.00;99.90
36446;DHT22;22472;50.848;-1.216;2022-07-11T09:36:44;32.20;99.90
36446;DHT22;22472;50.848;-1.216;2022-07-11T09:39:13;32.30;99.90
36446;DHT22;22472;50.848;-1.216;2022-07-11T09:41:41;32.60;99.90
36446;DHT22;22472;50.848;-1.216;2022-07-11T09:44:14;32.80;99.90
36446;DHT22;22472;50.848;-1.216;2022-07-11T09:46:43;32.90;99.90
36446;DHT22;22472;50.848;-1.216;2022-07-11T09:49:11;33.00;99.90
36446;DHT22;22472;50.848;-1.216;2022-07-11T09:51:39;33.50;99.90
36446;DHT22;22472;50.848;-1.216;2022-07-11T09:54:08;33.60;99.80
36446;DHT22;22472;50.848;-1.216;2022-07-11T09:56:38;33.80;99.80
36446;DHT22;22472;50.848;-1.216;2022-07-11T09:59:08;33.80;99.60
36446;DHT22;22472;50.848;-1.216;2022-07-11T10:01:35;33.80;99.30
36446;DHT22;22472;50.848;-1.216;2022-07-11T10:04:05;33.80;99.30
36446;DHT22;22472;50.848;-1.216;2022-07-11T10:06:32;34.20;99.30
36446;DHT22;22472;50.848;-1.216;2022-07-11T10:09:00;34.30;98.80
36446;DHT22;22472;50.848;-1.216;2022-07-11T10:11:28;34.20;98.70
36446;DHT22;22472;50.848;-1.216;2022-07-11T10:13:58;34.30;98.70
36446;DHT22;22472;50.848;-1.216;2022-07-11T10:16:38;34.60;98.30
36446;DHT22;22472;50.848;-1.216;2022-07-11T10:19:17;34.60;97.70
36446;DHT22;22472;50.848;-1.216;2022-07-11T10:21:51;34.70;97.60
36446;DHT22;22472;50.848;-1.216;2022-07-11T10:24:27;34.60;97.50
36446;DHT22;22472;50.848;-1.216;2022-07-11T10:27:01;34.70;97.30
36446;DHT22;22472;50.848;-1.216;2022-07-11T10:29:32;34.70;97.10
36446;DHT22;22472;50.848;-1.216;2022-07-11T10:32:05;34.80;96.80
36446;DHT22;22472;50.848;-1.216;2022-07-11T10:34:34;34.30;96.70
36446;DHT22;22472;50.848;-1.216;2022-07-11T10:37:01;33.90;96.50
36446;DHT22;22472;50.848;-1.216;2022-07-11T10:39:32;33.80;96.50
36446;DHT22;22472;50.848;-1.216;2022-07-11T10:42:01;33.60;96.50
36446;DHT22;22472;50.848;-1.216;2022-07-11T10:44:49;34.00;96.60
36446;DHT22;22472;50.848;-1.216;2022-07-11T10:47:33;33.70;97.00
36446;DHT22;22472;50.848;-1.216;2022-07-11T10:50:10;33.90;96.90
36446;DHT22;22472;50.848;-1.216;2022-07-11T10:52:40;34.50;96.90
36446;DHT22;22472;50.848;-1.216;2022-07-11T10:55:23;34.70;96.90
36446;DHT22;22472;50.848;-1.216;2022-07-11T10:58:02;34.60;96.60
36446;DHT22;22472;50.848;-1.216;2022-07-11T11:00:32;34.70;96.30
36446;DHT22;22472;50.848;-1.216;2022-07-11T11:06:55;35.10;96.00
36446;DHT22;22472;50.848;-1.216;2022-07-11T11:09:37;35.40;95.90
36446;DHT22;22472;50.848;-1.216;2022-07-11T11:12:04;35.70;95.70
36446;DHT22;22472;50.848;-1.216;2022-07-11T11:14:32;35.80;95.70
36446;DHT22;22472;50.848;-1.216;2022-07-11T11:19:59;36.10;95.10
36446;DHT22;22472;50.848;-1.216;2022-07-11T11:22:28;36.20;94.50
36446;DHT22;22472;50.848;-1.216;2022-07-11T11:24:56;36.00;94.30
36446;DHT22;22472;50.848;-1.216;2022-07-11T11:27:25;35.60;94.10
36446;DHT22;22472;50.848;-1.216;2022-07-11T11:29:54;35.70;94.00
36446;DHT22;22472;50.848;-1.216;2022-07-11T11:32:28;35.70;94.10
36446;DHT22;22472;50.848;-1.216;2022-07-11T11:34:57;35.80;94.10
36446;DHT22;22472;50.848;-1.216;2022-07-11T11:37:24;35.40;94.10
36446;DHT22;22472;50.848;-1.216;2022-07-11T11:39:59;35.40;94.10
36446;DHT22;22472;50.848;-1.216;2022-07-11T11:42:28;35.80;94.00
36446;DHT22;22472;50.848;-1.216;2022-07-11T11:44:57;36.20;93.80
36446;DHT22;22472;50.848;-1.216;2022-07-11T11:47:25;35.50;93.70
36446;DHT22;22472;50.848;-1.216;2022-07-11T11:49:52;35.30;93.50
36446;DHT22;22472;50.848;-1.216;2022-07-11T11:52:19;35.30;93.80
36446;DHT22;22472;50.848;-1.216;2022-07-11T11:54:52;35.60;93.70
36446;DHT22;22472;50.848;-1.216;2022-07-11T11:57:21;35.90;93.60
36446;DHT22;22472;50.848;-1.216;2022-07-11T11:59:49;36.10;93.80
36446;DHT22;22472;50.848;-1.216;2022-07-11T12:02:24;35.90;93.60
36446;DHT22;22472;50.848;-1.216;2022-07-11T12:04:52;35.80;93.40
36446;DHT22;22472;50.848;-1.216;2022-07-11T12:07:24;36.00;93.20
36446;DHT22;22472;50.848;-1.216;2022-07-11T12:09:52;36.00;93.10
36446;DHT22;22472;50.848;-1.216;2022-07-11T12:12:24;36.20;93.00
36446;DHT22;22472;50.848;-1.216;2022-07-11T12:15:26;36.00;92.90
36446;DHT22;22472;50.848;-1.216;2022-07-11T12:17:56;36.10;92.80
36446;DHT22;22472;50.848;-1.216;2022-07-11T12:20:36;35.80;92.80
36446;DHT22;22472;50.848;-1.216;2022-07-11T12:23:04;36.10;92.60
36446;DHT22;22472;50.848;-1.216;2022-07-11T12:25:32;35.90;92.70
36446;DHT22;22472;50.848;-1.216;2022-07-11T12:28:00;35.90;92.60
36446;DHT22;22472;50.848;-1.216;2022-07-11T12:30:27;36.20;92.40
36446;DHT22;22472;50.848;-1.216;2022-07-11T12:33:09;36.00;92.20
36446;DHT22;22472;50.848;-1.216;2022-07-11T12:35:36;35.60;92.20
36446;DHT22;22472;50.848;-1.216;2022-07-11T12:38:03;36.10;92.40
36446;DHT22;22472;50.848;-1.216;2022-07-11T12:40:31;36.70;92.20
36446;DHT22;22472;50.848;-1.216;2022-07-11T12:42:58;37.00;92.40
36446;DHT22;22472;50.848;-1.216;2022-07-11T12:45:26;37.60;92.40
36446;DHT22;22472;50.848;-1.216;2022-07-11T12:47:52;37.70;92.50
36446;DHT22;22472;50.848;-1.216;2022-07-11T12:50:22;37.80;92.40
36446;DHT22;22472;50.848;-1.216;2022-07-11T12:52:50;37.90;91.80
36446;DHT22;22472;50.848;-1.216;2022-07-11T12:55:22;38.10;91.40
36446;DHT22;22472;50.848;-1.216;2022-07-11T12:58:04;38.10;91.30
36446;DHT22;22472;50.848;-1.216;2022-07-11T13:00:34;38.40;91.20
36446;DHT22;22472;50.848;-1.216;2022-07-11T13:03:03;38.60;91.30
36446;DHT22;22472;50.848;-1.216;2022-07-11T13:05:45;38.70;87.30
36446;DHT22;22472;50.848;-1.216;2022-07-11T13:08:22;38.70;88.00
36446;DHT22;22472;50.848;-1.216;2022-07-11T13:11:07;38.70;88.10
36446;DHT22;22472;50.848;-1.216;2022-07-11T13:13:34;38.70;88.90
36446;DHT22;22472;50.848;-1.216;2022-07-11T13:16:03;38.50;88.60
36446;DHT22;22472;50.848;-1.216;2022-07-11T13:18:30;38.80;88.50
36446;DHT22;22472;50.848;-1.216;2022-07-11T13:20:58;38.90;88.80
36446;DHT22;22472;50.848;-1.216;2022-07-11T13:23:25;38.90;88.30
36446;DHT22;22472;50.848;-1.216;2022-07-11T13:25:52;38.80;88.10
36446;DHT22;22472;50.848;-1.216;2022-07-11T13:28:19;38.90;88.00
36446;DHT22;22472;50.848;-1.216;2022-07-11T13:30:46;38.70;87.70
36446;DHT22;22472;50.848;-1.216;2022-07-11T13:33:15;38.70;86.80
36446;DHT22;22472;50.848;-1.216;2022-07-11T13:35:42;38.70;86.80
36446;DHT22;22472;50.848;-1.216;2022-07-11T13:38:09;38.50;86.70
36446;DHT22;22472;50.848;-1.216;2022-07-11T13:40:36;38.60;86.70
36446;DHT22;22472;50.848;-1.216;2022-07-11T13:43:04;38.60;86.40
36446;DHT22;22472;50.848;-1.216;2022-07-11T13:45:31;38.70;86.40
36446;DHT22;22472;50.848;-1.216;2022-07-11T13:47:58;38.70;85.70
36446;DHT22;22472;50.848;-1.216;2022-07-11T13:50:26;38.80;85.20
36446;DHT22;22472;50.848;-1.216;2022-07-11T13:52:54;39.00;87.20
36446;DHT22;22472;50.848;-1.216;2022-07-11T13:55:22;39.20;86.80
36446;DHT22;22472;50.848;-1.216;2022-07-11T13:57:51;39.00;86.50
36446;DHT22;22472;50.848;-1.216;2022-07-11T14:00:19;39.20;87.00
36446;DHT22;22472;50.848;-1.216;2022-07-11T14:02:46;39.10;85.40
36446;DHT22;22472;50.848;-1.216;2022-07-11T14:05:14;39.00;84.80
36446;DHT22;22472;50.848;-1.216;2022-07-11T14:07:42;38.70;83.80
36446;DHT22;22472;50.848;-1.216;2022-07-11T14:10:09;38.70;84.30
36446;DHT22;22472;50.848;-1.216;2022-07-11T14:12:37;38.70;84.20
36446;DHT22;22472;50.848;-1.216;2022-07-11T14:15:04;38.80;85.20
36446;DHT22;22472;50.848;-1.216;2022-07-11T14:17:33;38.80;84.60
36446;DHT22;22472;50.848;-1.216;2022-07-11T14:20:01;38.60;84.80
36446;DHT22;22472;50.848;-1.216;2022-07-11T14:22:28;38.60;85.00
36446;DHT22;22472;50.848;-1.216;2022-07-11T14:24:56;38.70;85.10
36446;DHT22;22472;50.848;-1.216;2022-07-11T14:27:23;38.90;84.10
36446;DHT22;22472;50.848;-1.216;2022-07-11T14:29:51;38.80;84.20
36446;DHT22;22472;50.848;-1.216;2022-07-11T14:32:18;38.80;84.20
36446;DHT22;22472;50.848;-1.216;2022-07-11T14:34:46;38.80;84.00
36446;DHT22;22472;50.848;-1.216;2022-07-11T14:37:13;38.70;84.70
36446;DHT22;22472;50.848;-1.216;2022-07-11T14:39:40;38.80;84.80
36446;DHT22;22472;50.848;-1.216;2022-07-11T14:42:08;38.90;84.80
36446;DHT22;22472;50.848;-1.216;2022-07-11T14:44:35;38.90;84.90
36446;DHT22;22472;50.848;-1.216;2022-07-11T14:47:03;38.80;84.50
36446;DHT22;22472;50.848;-1.216;2022-07-11T14:49:30;38.90;84.50
36446;DHT22;22472;50.848;-1.216;2022-07-11T14:51:58;38.90;84.30
36446;DHT22;22472;50.848;-1.216;2022-07-11T14:54:25;38.90;84.10
36446;DHT22;22472;50.848;-1.216;2022-07-11T14:56:52;38.80;83.80
36446;DHT22;22472;50.848;-1.216;2022-07-11T14:59:20;38.80;83.70
36446;DHT22;22472;50.848;-1.216;2022-07-11T15:01:47;38.80;83.50
36446;DHT22;22472;50.848;-1.216;2022-07-11T15:04:14;38.40;81.90
36446;DHT22;22472;50.848;-1.216;2022-07-11T15:06:42;38.10;80.90
36446;DHT22;22472;50.848;-1.216;2022-07-11T15:09:26;37.90;81.00
36446;DHT22;22472;50.848;-1.216;2022-07-11T15:12:11;37.80;80.80
36446;DHT22;22472;50.848;-1.216;2022-07-11T15:15:02;37.10;80.50
36446;DHT22;22472;50.848;-1.216;2022-07-11T15:17:29;36.60;80.90
36446;DHT22;22472;50.848;-1.216;2022-07-11T15:19:56;36.30;81.10
36446;DHT22;22472;50.848;-1.216;2022-07-11T15:22:23;35.90;81.50
36446;DHT22;22472;50.848;-1.216;2022-07-11T15:24:50;35.90;81.80
36446;DHT22;22472;50.848;-1.216;2022-07-11T15:27:17;35.90;82.10
36446;DHT22;22472;50.848;-1.216;2022-07-11T15:29:44;35.80;82.70
36446;DHT22;22472;50.848;-1.216;2022-07-11T15:32:13;35.80;83.20
36446;DHT22;22472;50.848;-1.216;2022-07-11T15:34:40;35.70;83.40
36446;DHT22;22472;50.848;-1.216;2022-07-11T15:37:07;35.50;83.80
36446;DHT22;22472;50.848;-1.216;2022-07-11T15:39:34;35.30;84.00
36446;DHT22;22472;50.848;-1.216;2022-07-11T15:42:01;35.30;84.10
36446;DHT22;22472;50.848;-1.216;2022-07-11T15:44:28;35.40;84.10